createdAt,value
2018-06-27T00:00:59.686Z,0.00
2018-06-27T00:01:59.682Z,0.00
2018-06-27T00:02:59.684Z,0.00
2018-06-27T00:03:59.672Z,0.00
2018-06-27T00:04:59.673Z,0.00
2018-06-27T00:05:59.663Z,0.00
2018-06-27T00:06:59.664Z,0.00
2018-06-27T00:07:59.652Z,0.00
2018-06-27T00:08:59.646Z,0.00
2018-06-27T00:09:59.641Z,0.00
2018-06-27T00:10:59.635Z,0.00
2018-06-27T00:11:59.632Z,0.00
2018-06-27T00:12:59.622Z,0.00
2018-06-27T00:13:59.621Z,0.00
2018-06-27T00:14:59.615Z,0.00
2018-06-27T00:15:59.610Z,0.00
2018-06-27T00:16:59.607Z,0.00
2018-06-27T00:17:59.599Z,0.00
2018-06-27T00:18:59.593Z,0.00
2018-06-27T00:19:59.591Z,0.00
2018-06-27T00:20:59.583Z,0.00
2018-06-27T00:21:59.582Z,0.00
2018-06-27T00:22:59.571Z,0.00
2018-06-27T00:23:59.567Z,0.00
2018-06-27T00:24:59.564Z,0.00
2018-06-27T00:25:59.558Z,0.00
2018-06-27T00:26:59.554Z,0.00
2018-06-27T00:27:59.547Z,0.00
2018-06-27T00:28:59.541Z,0.00
2018-06-27T00:29:59.539Z,0.00
2018-06-27T00:30:59.531Z,0.00
2018-06-27T00:31:59.527Z,0.00
2018-06-27T00:32:59.521Z,0.00
2018-06-27T00:33:59.554Z,0.00
2018-06-27T00:34:59.511Z,0.00
2018-06-27T00:35:59.504Z,0.00
2018-06-27T00:36:59.498Z,0.00
2018-06-27T00:37:59.495Z,0.00
2018-06-27T00:38:59.491Z,0.00
2018-06-27T00:39:59.486Z,0.00
2018-06-27T00:40:59.481Z,0.00
2018-06-27T00:41:59.476Z,0.00
2018-06-27T00:42:59.470Z,0.00
2018-06-27T00:43:59.465Z,0.00
2018-06-27T00:44:59.460Z,0.00
2018-06-27T00:45:59.454Z,0.00
2018-06-27T00:46:59.446Z,0.00
2018-06-27T00:47:59.443Z,0.00
2018-06-27T00:48:59.438Z,0.00
2018-06-27T00:49:59.438Z,0.00
2018-06-27T00:50:59.430Z,0.00
2018-06-27T00:51:59.420Z,0.00
2018-06-27T00:52:59.416Z,0.00
2018-06-27T00:53:59.412Z,0.00
2018-06-27T00:54:59.404Z,0.00
2018-06-27T00:55:59.404Z,0.00
2018-06-27T00:56:59.395Z,0.00
2018-06-27T00:57:59.389Z,0.00
2018-06-27T00:58:59.384Z,0.00
2018-06-27T00:59:59.382Z,0.00
2018-06-27T01:00:59.373Z,0.00
2018-06-27T01:01:59.370Z,0.00
2018-06-27T01:02:59.363Z,0.00
2018-06-27T01:03:59.360Z,0.00
2018-06-27T01:04:59.353Z,0.00
2018-06-27T01:05:59.349Z,0.00
2018-06-27T01:06:59.343Z,0.00
2018-06-27T01:07:59.333Z,0.00
2018-06-27T01:08:59.332Z,0.00
2018-06-27T01:09:59.330Z,0.00
2018-06-27T01:10:59.322Z,0.00
2018-06-27T01:11:59.317Z,0.00
2018-06-27T01:12:59.312Z,0.00
2018-06-27T01:13:59.310Z,0.00
2018-06-27T01:14:59.301Z,0.00
2018-06-27T01:15:59.296Z,0.00
2018-06-27T01:16:59.291Z,0.00
2018-06-27T01:17:59.287Z,0.00
2018-06-27T01:18:59.280Z,0.00
2018-06-27T01:19:59.284Z,0.00
2018-06-27T01:20:59.268Z,0.00
2018-06-27T01:21:59.265Z,0.00
2018-06-27T01:22:59.260Z,0.00
2018-06-27T01:23:59.253Z,0.00
2018-06-27T01:24:59.250Z,0.00
2018-06-27T01:25:59.244Z,0.00
2018-06-27T01:26:59.240Z,0.00
2018-06-27T01:27:59.234Z,0.00
2018-06-27T01:28:59.229Z,0.00
2018-06-27T01:29:59.221Z,0.00
2018-06-27T01:30:59.217Z,0.00
2018-06-27T01:31:59.212Z,0.00
2018-06-27T01:32:59.207Z,0.00
2018-06-27T01:33:59.202Z,0.00
2018-06-27T01:34:59.195Z,0.00
2018-06-27T01:35:59.191Z,0.00
2018-06-27T01:36:59.184Z,0.00
2018-06-27T01:37:59.186Z,0.00
2018-06-27T01:38:59.175Z,0.00
2018-06-27T01:39:59.169Z,0.00
2018-06-27T01:40:59.165Z,0.00
2018-06-27T01:41:59.162Z,0.00
2018-06-27T01:42:59.154Z,0.00
2018-06-27T01:43:59.146Z,0.00
2018-06-27T01:44:59.143Z,0.00
2018-06-27T01:45:59.138Z,0.00
2018-06-27T01:46:59.133Z,0.00
2018-06-27T01:47:59.130Z,0.00
2018-06-27T01:48:59.125Z,0.00
2018-06-27T01:49:59.117Z,0.00
2018-06-27T01:50:59.110Z,0.00
2018-06-27T01:51:59.104Z,0.00
2018-06-27T01:52:59.101Z,0.00
2018-06-27T01:53:59.095Z,0.00
2018-06-27T01:54:59.093Z,0.00
2018-06-27T01:55:59.124Z,0.00
2018-06-27T01:56:59.084Z,0.00
2018-06-27T01:57:59.074Z,0.00
2018-06-27T01:58:59.068Z,0.00
2018-06-27T01:59:59.062Z,0.00
2018-06-27T02:00:59.059Z,0.00
2018-06-27T02:01:59.053Z,0.00
2018-06-27T02:02:59.047Z,0.00
2018-06-27T02:03:59.041Z,0.00
2018-06-27T02:04:59.037Z,0.00
2018-06-27T02:05:59.032Z,0.00
2018-06-27T02:06:59.024Z,0.00
2018-06-27T02:07:59.022Z,0.00
2018-06-27T02:08:59.015Z,0.00
2018-06-27T02:09:59.012Z,0.00
2018-06-27T02:10:59.004Z,0.00
2018-06-27T02:11:59.000Z,0.00
2018-06-27T02:12:58.994Z,0.00
2018-06-27T02:13:58.985Z,0.00
2018-06-27T02:14:58.983Z,0.00
2018-06-27T02:15:58.978Z,0.00
2018-06-27T02:16:58.973Z,0.00
2018-06-27T02:17:58.970Z,0.00
2018-06-27T02:18:58.963Z,0.00
2018-06-27T02:19:58.958Z,0.00
2018-06-27T02:20:58.952Z,0.00
2018-06-27T02:21:58.947Z,0.00
2018-06-27T02:22:58.941Z,0.00
2018-06-27T02:23:58.942Z,0.00
2018-06-27T02:24:58.931Z,0.00
2018-06-27T02:25:58.926Z,0.00
2018-06-27T02:26:58.922Z,0.00
2018-06-27T02:27:58.913Z,0.00
2018-06-27T02:28:58.910Z,0.00
2018-06-27T02:29:58.905Z,0.00
2018-06-27T02:30:58.900Z,0.00
2018-06-27T02:31:58.895Z,0.00
2018-06-27T02:32:58.888Z,0.00
2018-06-27T02:33:58.883Z,0.00
2018-06-27T02:34:58.878Z,0.00
2018-06-27T02:35:58.873Z,0.00
2018-06-27T02:36:58.869Z,0.00
2018-06-27T02:37:58.862Z,0.00
2018-06-27T02:38:58.888Z,0.00
2018-06-27T02:39:58.872Z,0.00
2018-06-27T02:40:58.865Z,0.00
2018-06-27T02:41:58.857Z,0.00
2018-06-27T02:42:58.836Z,0.00
2018-06-27T02:43:58.829Z,0.00
2018-06-27T02:44:58.825Z,0.00
2018-06-27T02:45:58.821Z,0.00
2018-06-27T02:46:58.812Z,0.00
2018-06-27T02:47:58.809Z,0.00
2018-06-27T02:48:58.802Z,0.00
2018-06-27T02:49:58.798Z,0.00
2018-06-27T02:50:58.792Z,0.00
2018-06-27T02:51:58.787Z,0.00
2018-06-27T02:52:58.781Z,0.00
2018-06-27T02:53:58.776Z,0.00
2018-06-27T02:54:58.770Z,0.00
2018-06-27T02:55:58.765Z,0.00
2018-06-27T02:56:58.761Z,0.00
2018-06-27T02:57:58.755Z,0.00
2018-06-27T02:58:58.749Z,0.00
2018-06-27T02:59:58.744Z,0.00
2018-06-27T03:00:58.739Z,0.00
2018-06-27T03:01:58.732Z,0.00
2018-06-27T03:02:58.726Z,0.00
2018-06-27T03:03:58.718Z,0.00
2018-06-27T03:04:58.717Z,0.00
2018-06-27T03:05:58.713Z,0.00
2018-06-27T03:06:58.705Z,0.00
2018-06-27T03:07:58.700Z,0.00
2018-06-27T03:08:58.693Z,0.00
2018-06-27T03:09:58.689Z,0.00
2018-06-27T03:10:58.683Z,0.00
2018-06-27T03:11:58.678Z,0.00
2018-06-27T03:12:58.676Z,0.00
2018-06-27T03:13:58.670Z,0.00
2018-06-27T03:14:58.661Z,0.00
2018-06-27T03:15:58.656Z,0.00
2018-06-27T03:16:58.652Z,0.00
2018-06-27T03:17:58.648Z,0.00
2018-06-27T03:18:58.640Z,0.00
2018-06-27T03:19:58.637Z,0.00
2018-06-27T03:20:58.631Z,0.00
2018-06-27T03:21:58.625Z,0.00
2018-06-27T03:22:58.619Z,0.00
2018-06-27T03:23:58.613Z,0.00
2018-06-27T03:24:58.609Z,0.00
2018-06-27T03:25:58.603Z,4.00
2018-06-27T03:26:58.595Z,4.00
2018-06-27T03:27:58.592Z,4.00
2018-06-27T03:28:58.586Z,4.00
2018-06-27T03:29:58.582Z,4.00
2018-06-27T03:30:58.573Z,4.00
2018-06-27T03:31:58.571Z,4.00
2018-06-27T03:32:58.565Z,4.00
2018-06-27T03:33:58.559Z,4.00
2018-06-27T03:34:58.554Z,4.00
2018-06-27T03:35:58.549Z,4.00
2018-06-27T03:36:58.543Z,4.00
2018-06-27T03:37:58.538Z,4.00
2018-06-27T03:38:58.533Z,0.00
2018-06-27T03:39:58.527Z,12.00
2018-06-27T03:40:58.521Z,108.00
2018-06-27T03:41:58.517Z,112.00
2018-06-27T03:42:58.510Z,64.00
2018-06-27T03:43:58.505Z,68.00
2018-06-27T03:44:58.498Z,76.00
2018-06-27T03:45:58.494Z,76.00
2018-06-27T03:46:58.487Z,80.00
2018-06-27T03:47:58.480Z,80.00
2018-06-27T03:48:58.475Z,84.00
2018-06-27T03:49:58.467Z,88.00
2018-06-27T03:50:58.462Z,92.00
2018-06-27T03:51:58.455Z,96.00
2018-06-27T03:52:58.449Z,96.00
2018-06-27T03:53:58.444Z,100.00
2018-06-27T03:54:58.435Z,100.00
2018-06-27T03:55:58.432Z,104.00
2018-06-27T03:56:58.424Z,108.00
2018-06-27T03:57:58.419Z,112.00
2018-06-27T03:58:58.431Z,116.00
2018-06-27T03:59:58.406Z,116.00
2018-06-27T04:00:58.399Z,124.00
2018-06-27T04:01:58.396Z,128.00
2018-06-27T04:02:58.386Z,128.00
2018-06-27T04:03:58.378Z,132.00
2018-06-27T04:04:58.374Z,136.00
2018-06-27T04:05:58.364Z,140.00
2018-06-27T04:06:58.358Z,144.00
2018-06-27T04:07:58.353Z,144.00
2018-06-27T04:08:58.345Z,148.00
2018-06-27T04:09:58.339Z,148.00
2018-06-27T04:10:58.331Z,156.00
2018-06-27T04:11:58.323Z,156.00
2018-06-27T04:12:58.402Z,164.00
2018-06-27T04:13:58.311Z,164.00
2018-06-27T04:14:58.303Z,168.00
2018-06-27T04:15:58.297Z,172.00
2018-06-27T04:16:58.292Z,176.00
2018-06-27T04:17:58.284Z,176.00
2018-06-27T04:18:58.276Z,184.00
2018-06-27T04:19:58.273Z,188.00
2018-06-27T04:20:58.269Z,192.00
2018-06-27T04:21:58.256Z,192.00
2018-06-27T04:22:58.249Z,196.00
2018-06-27T04:23:58.245Z,200.00
2018-06-27T04:24:58.236Z,208.00
2018-06-27T04:25:58.228Z,212.00
2018-06-27T04:26:58.227Z,216.00
2018-06-27T04:27:58.213Z,220.00
2018-06-27T04:28:58.210Z,224.00
2018-06-27T04:29:58.202Z,228.00
2018-06-27T04:30:58.194Z,236.00
2018-06-27T04:31:58.187Z,240.00
2018-06-27T04:32:58.181Z,248.00
2018-06-27T04:33:58.174Z,248.00
2018-06-27T04:34:58.169Z,256.00
2018-06-27T04:35:58.240Z,260.00
2018-06-27T04:36:58.153Z,264.00
2018-06-27T04:37:58.147Z,268.00
2018-06-27T04:38:58.139Z,272.00
2018-06-27T04:39:58.134Z,276.00
2018-06-27T04:40:58.128Z,276.00
2018-06-27T04:41:58.121Z,284.00
2018-06-27T04:42:58.113Z,288.00
2018-06-27T04:43:58.109Z,284.00
2018-06-27T04:44:58.097Z,284.00
2018-06-27T04:45:58.092Z,296.00
2018-06-27T04:46:58.083Z,304.00
2018-06-27T04:47:58.077Z,308.00
2018-06-27T04:48:58.070Z,316.00
2018-06-27T04:49:58.064Z,316.00
2018-06-27T04:50:58.057Z,316.00
2018-06-27T04:51:58.052Z,316.00
2018-06-27T04:52:58.043Z,304.00
2018-06-27T04:53:58.036Z,316.00
2018-06-27T04:54:58.050Z,304.00
2018-06-27T04:55:58.022Z,284.00
2018-06-27T04:56:58.017Z,284.00
2018-06-27T04:57:58.006Z,292.00
2018-06-27T04:58:58.001Z,288.00
2018-06-27T04:59:57.994Z,296.00
2018-06-27T05:00:57.986Z,300.00
2018-06-27T05:01:57.982Z,328.00
2018-06-27T05:02:58.004Z,324.00
2018-06-27T05:03:57.984Z,304.00
2018-06-27T05:04:57.960Z,380.00
2018-06-27T05:05:57.952Z,392.00
2018-06-27T05:06:57.944Z,412.00
2018-06-27T05:07:57.936Z,420.00
2018-06-27T05:08:57.930Z,428.00
2018-06-27T05:09:57.924Z,436.00
2018-06-27T05:10:57.942Z,440.00
2018-06-27T05:11:57.909Z,448.00
2018-06-27T05:12:57.921Z,452.00
2018-06-27T05:13:57.937Z,456.00
2018-06-27T05:14:57.886Z,460.00
2018-06-27T05:15:57.894Z,464.00
2018-06-27T05:16:57.876Z,468.00
2018-06-27T05:17:57.868Z,472.00
2018-06-27T05:18:57.860Z,480.00
2018-06-27T05:19:57.856Z,460.00
2018-06-27T05:20:57.851Z,432.00
2018-06-27T05:21:57.841Z,464.00
2018-06-27T05:22:57.833Z,476.00
2018-06-27T05:23:57.825Z,500.00
2018-06-27T05:24:57.818Z,516.00
2018-06-27T05:25:57.812Z,520.00
2018-06-27T05:26:57.805Z,528.00
2018-06-27T05:27:57.800Z,532.00
2018-06-27T05:28:57.790Z,532.00
2018-06-27T05:29:57.787Z,536.00
2018-06-27T05:30:57.778Z,536.00
2018-06-27T05:31:57.771Z,536.00
2018-06-27T05:32:57.766Z,544.00
2018-06-27T05:33:57.826Z,552.00
2018-06-27T05:34:57.749Z,556.00
2018-06-27T05:35:57.745Z,564.00
2018-06-27T05:36:57.736Z,568.00
2018-06-27T05:37:57.729Z,576.00
2018-06-27T05:38:57.722Z,580.00
2018-06-27T05:39:57.716Z,588.00
2018-06-27T05:40:57.711Z,596.00
2018-06-27T05:41:57.703Z,604.00
2018-06-27T05:42:57.695Z,612.00
2018-06-27T05:43:57.691Z,616.00
2018-06-27T05:44:57.682Z,616.00
2018-06-27T05:45:57.676Z,628.00
2018-06-27T05:46:57.667Z,628.00
2018-06-27T05:47:57.661Z,632.00
2018-06-27T05:48:57.653Z,636.00
2018-06-27T05:49:57.649Z,640.00
2018-06-27T05:50:57.639Z,644.00
2018-06-27T05:51:57.637Z,652.00
2018-06-27T05:52:57.629Z,656.00
2018-06-27T05:53:57.619Z,660.00
2018-06-27T05:54:57.613Z,664.00
2018-06-27T05:55:57.608Z,672.00
2018-06-27T05:56:57.600Z,684.00
2018-06-27T05:57:57.593Z,688.00
2018-06-27T05:58:57.589Z,696.00
2018-06-27T05:59:57.579Z,700.00
2018-06-27T06:00:57.572Z,712.00
2018-06-27T06:01:57.566Z,716.00
2018-06-27T06:02:57.558Z,720.00
2018-06-27T06:03:57.550Z,724.00
2018-06-27T06:04:57.545Z,732.00
2018-06-27T06:05:57.538Z,740.00
2018-06-27T06:06:57.532Z,748.00
2018-06-27T06:07:57.524Z,756.00
2018-06-27T06:08:57.518Z,764.00
2018-06-27T06:09:57.541Z,768.00
2018-06-27T06:10:57.507Z,772.00
2018-06-27T06:11:57.498Z,784.00
2018-06-27T06:12:57.490Z,784.00
2018-06-27T06:13:57.485Z,792.00
2018-06-27T06:14:57.477Z,792.00
2018-06-27T06:15:57.469Z,796.00
2018-06-27T06:16:57.463Z,800.00
2018-06-27T06:17:57.459Z,808.00
2018-06-27T06:18:57.449Z,812.00
2018-06-27T06:19:57.444Z,820.00
2018-06-27T06:20:57.437Z,824.00
2018-06-27T06:21:57.431Z,832.00
2018-06-27T06:22:57.423Z,836.00
2018-06-27T06:23:57.415Z,836.00
2018-06-27T06:24:57.410Z,848.00
2018-06-27T06:25:57.404Z,848.00
2018-06-27T06:26:57.396Z,852.00
2018-06-27T06:27:57.389Z,860.00
2018-06-27T06:28:57.382Z,860.00
2018-06-27T06:29:57.377Z,868.00
2018-06-27T06:30:57.369Z,876.00
2018-06-27T06:31:57.362Z,884.00
2018-06-27T06:32:57.356Z,888.00
2018-06-27T06:33:57.353Z,888.00
2018-06-27T06:34:57.343Z,892.00
2018-06-27T06:35:57.335Z,900.00
2018-06-27T06:36:57.330Z,908.00
2018-06-27T06:37:57.323Z,912.00
2018-06-27T06:38:57.315Z,912.00
2018-06-27T06:39:57.310Z,916.00
2018-06-27T06:40:57.302Z,916.00
2018-06-27T06:41:57.296Z,920.00
2018-06-27T06:42:57.288Z,924.00
2018-06-27T06:43:57.283Z,928.00
2018-06-27T06:44:57.279Z,932.00
2018-06-27T06:45:57.305Z,936.00
2018-06-27T06:46:57.262Z,940.00
2018-06-27T06:47:57.256Z,944.00
2018-06-27T06:48:57.248Z,944.00
2018-06-27T06:49:57.244Z,948.00
2018-06-27T06:50:57.235Z,952.00
2018-06-27T06:51:57.230Z,956.00
2018-06-27T06:52:57.224Z,956.00
2018-06-27T06:53:57.219Z,960.00
2018-06-27T06:54:57.212Z,964.00
2018-06-27T06:55:57.203Z,968.00
2018-06-27T06:56:57.197Z,968.00
2018-06-27T06:57:57.191Z,972.00
2018-06-27T06:58:57.183Z,968.00
2018-06-27T06:59:57.178Z,968.00
2018-06-27T07:00:57.171Z,972.00
2018-06-27T07:01:57.164Z,976.00
2018-06-27T07:02:57.158Z,980.00
2018-06-27T07:03:57.151Z,988.00
2018-06-27T07:04:57.156Z,992.00
2018-06-27T07:05:57.139Z,1000.00
2018-06-27T07:06:57.131Z,1004.00
2018-06-27T07:07:57.125Z,1004.00
2018-06-27T07:08:57.118Z,1008.00
2018-06-27T07:09:57.112Z,1016.00
2018-06-27T07:10:57.118Z,1020.00
2018-06-27T07:11:57.099Z,1028.00
2018-06-27T07:12:57.091Z,1036.00
2018-06-27T07:13:57.089Z,1040.00
2018-06-27T07:14:57.078Z,1052.00
2018-06-27T07:15:57.073Z,1056.00
2018-06-27T07:16:57.070Z,1064.00
2018-06-27T07:17:57.061Z,1072.00
2018-06-27T07:18:57.053Z,1080.00
2018-06-27T07:19:57.048Z,1092.00
2018-06-27T07:20:57.039Z,1100.00
2018-06-27T07:21:57.034Z,1108.00
2018-06-27T07:22:57.027Z,1120.00
2018-06-27T07:23:57.023Z,1128.00
2018-06-27T07:24:57.015Z,1140.00
2018-06-27T07:25:57.009Z,1156.00
2018-06-27T07:26:57.001Z,1168.00
2018-06-27T07:27:56.999Z,1176.00
2018-06-27T07:28:56.989Z,1192.00
2018-06-27T07:29:56.996Z,1208.00
2018-06-27T07:30:56.977Z,1220.00
2018-06-27T07:31:56.969Z,1236.00
2018-06-27T07:32:56.965Z,1256.00
2018-06-27T07:33:56.960Z,1268.00
2018-06-27T07:34:56.985Z,1280.00
2018-06-27T07:35:57.009Z,1296.00
2018-06-27T07:36:56.938Z,1308.00
2018-06-27T07:37:56.932Z,1320.00
2018-06-27T07:38:56.927Z,1332.00
2018-06-27T07:39:56.919Z,1340.00
2018-06-27T07:40:56.905Z,1348.00
2018-06-27T07:41:56.908Z,1364.00
2018-06-27T07:42:56.903Z,1380.00
2018-06-27T07:43:56.895Z,1388.00
2018-06-27T07:44:56.891Z,1396.00
2018-06-27T07:45:56.883Z,1404.00
2018-06-27T07:46:56.893Z,1412.00
2018-06-27T07:47:56.870Z,1424.00
2018-06-27T07:48:56.863Z,1436.00
2018-06-27T07:49:56.884Z,1452.00
2018-06-27T07:50:56.851Z,1464.00
2018-06-27T07:51:56.848Z,1472.00
2018-06-27T07:52:56.840Z,1488.00
2018-06-27T07:53:56.834Z,1496.00
2018-06-27T07:54:56.824Z,1504.00
2018-06-27T07:55:56.818Z,1520.00
2018-06-27T07:56:56.824Z,1528.00
2018-06-27T07:57:56.808Z,1536.00
2018-06-27T07:58:56.800Z,1544.00
2018-06-27T07:59:56.796Z,1556.00
2018-06-27T08:00:56.790Z,1564.00
2018-06-27T08:01:56.784Z,1568.00
2018-06-27T08:02:56.777Z,1576.00
2018-06-27T08:03:56.771Z,1592.00
2018-06-27T08:04:56.764Z,1600.00
2018-06-27T08:05:56.815Z,1604.00
2018-06-27T08:06:56.750Z,1620.00
2018-06-27T08:07:56.746Z,1628.00
2018-06-27T08:08:56.739Z,1644.00
2018-06-27T08:09:56.735Z,1652.00
2018-06-27T08:10:56.734Z,1668.00
2018-06-27T08:11:56.723Z,1676.00
2018-06-27T08:12:56.718Z,1684.00
2018-06-27T08:13:56.711Z,1700.00
2018-06-27T08:14:56.705Z,1708.00
2018-06-27T08:15:56.697Z,1716.00
2018-06-27T08:16:56.692Z,1728.00
2018-06-27T08:17:56.790Z,1740.00
2018-06-27T08:18:56.680Z,1752.00
2018-06-27T08:19:56.673Z,1764.00
2018-06-27T08:20:56.667Z,1780.00
2018-06-27T08:21:56.661Z,1792.00
2018-06-27T08:22:56.655Z,1796.00
2018-06-27T08:23:56.652Z,1812.00
2018-06-27T08:24:56.644Z,1824.00
2018-06-27T08:25:56.676Z,1840.00
2018-06-27T08:26:56.632Z,1848.00
2018-06-27T08:27:56.626Z,1860.00
2018-06-27T08:28:56.621Z,1876.00
2018-06-27T08:29:56.613Z,1900.00
2018-06-27T08:30:56.609Z,1904.00
2018-06-27T08:31:56.605Z,1912.00
2018-06-27T08:32:56.598Z,1928.00
2018-06-27T08:33:56.600Z,1940.00
2018-06-27T08:34:56.589Z,1940.00
2018-06-27T08:35:56.578Z,1952.00
2018-06-27T08:36:56.575Z,1968.00
2018-06-27T08:37:56.567Z,1964.00
2018-06-27T08:38:56.561Z,1968.00
2018-06-27T08:39:56.557Z,1988.00
2018-06-27T08:40:56.550Z,1996.00
2018-06-27T08:41:56.543Z,2004.00
2018-06-27T08:42:56.543Z,2020.00
2018-06-27T08:43:56.533Z,2040.00
2018-06-27T08:44:56.531Z,2056.00
2018-06-27T08:45:56.521Z,2060.00
2018-06-27T08:46:56.519Z,2076.00
2018-06-27T08:47:56.509Z,2092.00
2018-06-27T08:48:56.503Z,2100.00
2018-06-27T08:49:56.520Z,1252.00
2018-06-27T08:50:56.491Z,2136.00
2018-06-27T08:51:56.486Z,2148.00
2018-06-27T08:52:56.481Z,2180.00
2018-06-27T08:53:56.476Z,2188.00
2018-06-27T08:54:56.468Z,2196.00
2018-06-27T08:55:56.465Z,2196.00
2018-06-27T08:56:56.456Z,2220.00
2018-06-27T08:57:56.452Z,2224.00
2018-06-27T08:58:56.447Z,2284.00
2018-06-27T08:59:56.446Z,2380.00
2018-06-27T09:00:56.435Z,2376.00
2018-06-27T09:01:56.429Z,2472.00
2018-06-27T09:02:56.422Z,2520.00
2018-06-27T09:03:56.418Z,2556.00
2018-06-27T09:04:56.414Z,2568.00
2018-06-27T09:05:56.408Z,2520.00
2018-06-27T09:06:56.401Z,2488.00
2018-06-27T09:07:56.401Z,2548.00
2018-06-27T09:08:56.397Z,2580.00
2018-06-27T09:09:56.390Z,1044.00
2018-06-27T09:10:56.380Z,1100.00
2018-06-27T09:11:56.376Z,2320.00
2018-06-27T09:12:56.367Z,2624.00
2018-06-27T09:13:56.362Z,2692.00
2018-06-27T09:14:56.357Z,2696.00
2018-06-27T09:15:56.352Z,2676.00
2018-06-27T09:16:56.346Z,2632.00
2018-06-27T09:17:56.342Z,2580.00
2018-06-27T09:18:56.336Z,2592.00
2018-06-27T09:19:56.331Z,2584.00
2018-06-27T09:20:56.325Z,2584.00
2018-06-27T09:21:56.320Z,2636.00
2018-06-27T09:22:56.313Z,2684.00
2018-06-27T09:23:56.310Z,2716.00
2018-06-27T09:24:56.304Z,2656.00
2018-06-27T09:25:56.297Z,2100.00
2018-06-27T09:26:56.291Z,1104.00
2018-06-27T09:27:56.290Z,2244.00
2018-06-27T09:28:56.291Z,1076.00
2018-06-27T09:29:56.276Z,1104.00
2018-06-27T09:30:56.270Z,1752.00
2018-06-27T09:31:56.266Z,2836.00
2018-06-27T09:32:56.263Z,2832.00
2018-06-27T09:33:56.255Z,2824.00
2018-06-27T09:34:56.249Z,2780.00
2018-06-27T09:35:56.244Z,2748.00
2018-06-27T09:36:56.239Z,2760.00
2018-06-27T09:37:56.236Z,2784.00
2018-06-27T09:38:56.229Z,2768.00
2018-06-27T09:39:56.222Z,2736.00
2018-06-27T09:40:56.216Z,2748.00
2018-06-27T09:41:56.225Z,2396.00
2018-06-27T09:42:56.207Z,2760.00
2018-06-27T09:43:56.202Z,2696.00
2018-06-27T09:44:56.196Z,2700.00
2018-06-27T09:45:56.375Z,2644.00
2018-06-27T09:46:56.191Z,2680.00
2018-06-27T09:47:56.182Z,2668.00
2018-06-27T09:48:56.176Z,2656.00
2018-06-27T09:49:56.172Z,2616.00
2018-06-27T09:50:56.165Z,2576.00
2018-06-27T09:51:56.159Z,2544.00
2018-06-27T09:52:56.158Z,2508.00
2018-06-27T09:53:56.152Z,2488.00
2018-06-27T09:54:56.148Z,2484.00
2018-06-27T09:55:56.142Z,2472.00
2018-06-27T09:56:56.162Z,2476.00
2018-06-27T09:57:56.129Z,2472.00
2018-06-27T09:58:56.123Z,2468.00
2018-06-27T09:59:56.121Z,2460.00
2018-06-27T10:00:56.188Z,2452.00
2018-06-27T10:01:56.113Z,2452.00
2018-06-27T10:02:56.109Z,2456.00
2018-06-27T10:03:56.098Z,2448.00
2018-06-27T10:04:56.097Z,2444.00
2018-06-27T10:05:56.088Z,2432.00
2018-06-27T10:06:56.083Z,2444.00
2018-06-27T10:07:56.086Z,2460.00
2018-06-27T10:08:56.074Z,2488.00
2018-06-27T10:09:56.070Z,2492.00
2018-06-27T10:10:56.060Z,2496.00
2018-06-27T10:11:56.063Z,2520.00
2018-06-27T10:12:56.055Z,2220.00
2018-06-27T10:13:56.048Z,2572.00
2018-06-27T10:14:56.043Z,2644.00
2018-06-27T10:15:56.035Z,2580.00
2018-06-27T10:16:56.034Z,2568.00
2018-06-27T10:17:56.025Z,2108.00
2018-06-27T10:18:56.021Z,2664.00
2018-06-27T10:19:56.017Z,996.00
2018-06-27T10:20:56.013Z,2728.00
2018-06-27T10:21:56.007Z,2684.00
2018-06-27T10:22:56.000Z,2368.00
2018-06-27T10:23:55.996Z,2588.00
2018-06-27T10:24:55.993Z,2600.00
2018-06-27T10:25:55.986Z,2628.00
2018-06-27T10:26:55.980Z,2592.00
2018-06-27T10:27:55.976Z,2564.00
2018-06-27T10:28:55.970Z,2548.00
2018-06-27T10:29:55.967Z,2588.00
2018-06-27T10:30:55.961Z,2604.00
2018-06-27T10:31:55.955Z,2620.00
2018-06-27T10:32:55.950Z,2652.00
2018-06-27T10:33:55.947Z,2688.00
2018-06-27T10:34:55.944Z,2696.00
2018-06-27T10:35:55.936Z,2688.00
2018-06-27T10:36:55.931Z,2656.00
2018-06-27T10:37:55.926Z,2664.00
2018-06-27T10:38:55.920Z,2600.00
2018-06-27T10:39:55.918Z,2564.00
2018-06-27T10:40:55.910Z,2576.00
2018-06-27T10:41:55.910Z,2544.00
2018-06-27T10:42:55.900Z,2548.00
2018-06-27T10:43:55.899Z,2532.00
2018-06-27T10:44:55.892Z,2520.00
2018-06-27T10:45:55.888Z,2408.00
2018-06-27T10:46:55.883Z,2512.00
2018-06-27T10:47:55.917Z,2500.00
2018-06-27T10:48:55.915Z,2464.00
2018-06-27T10:49:55.868Z,2416.00
2018-06-27T10:50:55.866Z,2400.00
2018-06-27T10:51:55.899Z,2376.00
2018-06-27T10:52:55.854Z,2372.00
2018-06-27T10:53:55.849Z,2368.00
2018-06-27T10:54:55.842Z,2356.00
2018-06-27T10:55:55.839Z,2348.00
2018-06-27T10:56:55.872Z,2388.00
2018-06-27T10:57:55.830Z,2424.00
2018-06-27T10:58:55.824Z,2392.00
2018-06-27T10:59:55.818Z,2400.00
2018-06-27T11:00:55.815Z,2392.00
2018-06-27T11:01:55.814Z,2388.00
2018-06-27T11:02:55.811Z,2356.00
2018-06-27T11:03:55.800Z,2308.00
2018-06-27T11:04:55.795Z,2272.00
2018-06-27T11:05:55.806Z,2248.00
2018-06-27T11:06:55.786Z,2228.00
2018-06-27T11:07:55.784Z,2220.00
2018-06-27T11:08:55.776Z,2208.00
2018-06-27T11:09:55.773Z,2184.00
2018-06-27T11:10:55.766Z,2188.00
2018-06-27T11:11:55.761Z,2188.00
2018-06-27T11:12:55.758Z,2172.00
2018-06-27T11:13:55.752Z,2132.00
2018-06-27T11:14:55.747Z,2088.00
2018-06-27T11:15:55.742Z,2040.00
2018-06-27T11:16:55.739Z,2008.00
2018-06-27T11:17:55.733Z,1996.00
2018-06-27T11:18:55.728Z,1984.00
2018-06-27T11:19:55.723Z,2004.00
2018-06-27T11:20:55.722Z,2028.00
2018-06-27T11:21:55.714Z,2052.00
2018-06-27T11:22:55.708Z,2080.00
2018-06-27T11:23:55.704Z,2064.00
2018-06-27T11:24:55.699Z,2036.00
2018-06-27T11:25:55.693Z,2008.00
2018-06-27T11:26:55.737Z,1952.00
2018-06-27T11:27:55.685Z,1916.00
2018-06-27T11:28:55.681Z,1888.00
2018-06-27T11:29:55.676Z,1868.00
2018-06-27T11:30:55.669Z,1832.00
2018-06-27T11:31:55.665Z,1800.00
2018-06-27T11:32:55.661Z,1780.00
2018-06-27T11:33:55.709Z,1752.00
2018-06-27T11:34:55.652Z,1712.00
2018-06-27T11:35:55.647Z,1680.00
2018-06-27T11:36:55.642Z,1664.00
2018-06-27T11:37:55.637Z,1648.00
2018-06-27T11:38:55.633Z,1628.00
2018-06-27T11:39:55.629Z,1616.00
2018-06-27T11:40:55.623Z,1612.00
2018-06-27T11:41:55.619Z,1616.00
2018-06-27T11:42:55.613Z,1616.00
2018-06-27T11:43:55.609Z,680.00
2018-06-27T11:44:55.604Z,1592.00
2018-06-27T11:45:55.600Z,1572.00
2018-06-27T11:46:55.595Z,1572.00
2018-06-27T11:47:55.589Z,1564.00
2018-06-27T11:48:55.584Z,1564.00
2018-06-27T11:49:55.580Z,1012.00
2018-06-27T11:50:55.574Z,1480.00
2018-06-27T11:51:55.570Z,1452.00
2018-06-27T11:52:55.568Z,1428.00
2018-06-27T11:53:55.559Z,1392.00
2018-06-27T11:54:55.558Z,1364.00
2018-06-27T11:55:55.550Z,1352.00
2018-06-27T11:56:55.565Z,1344.00
2018-06-27T11:57:55.554Z,1328.00
2018-06-27T11:58:55.535Z,1300.00
2018-06-27T11:59:55.530Z,1292.00
2018-06-27T12:00:55.537Z,1296.00
2018-06-27T12:01:55.521Z,1304.00
2018-06-27T12:02:55.513Z,1344.00
2018-06-27T12:03:55.511Z,612.00
2018-06-27T12:04:55.507Z,564.00
2018-06-27T12:05:55.502Z,1288.00
2018-06-27T12:06:55.498Z,1268.00
2018-06-27T12:07:55.492Z,1248.00
2018-06-27T12:08:55.491Z,1220.00
2018-06-27T12:09:55.483Z,1204.00
2018-06-27T12:10:55.476Z,1188.00
2018-06-27T12:11:55.473Z,1176.00
2018-06-27T12:12:55.467Z,960.00
2018-06-27T12:13:55.466Z,612.00
2018-06-27T12:14:55.457Z,556.00
2018-06-27T12:15:55.452Z,1124.00
2018-06-27T12:16:55.489Z,1108.00
2018-06-27T12:17:55.445Z,1088.00
2018-06-27T12:18:55.436Z,872.00
2018-06-27T12:19:55.433Z,1084.00
2018-06-27T12:20:55.427Z,1080.00
2018-06-27T12:21:55.423Z,1072.00
2018-06-27T12:22:55.417Z,868.00
2018-06-27T12:23:55.464Z,1056.00
2018-06-27T12:24:55.408Z,1036.00
2018-06-27T12:25:55.403Z,1012.00
2018-06-27T12:26:55.397Z,1004.00
2018-06-27T12:27:55.392Z,992.00
2018-06-27T12:28:55.395Z,984.00
2018-06-27T12:29:55.384Z,980.00
2018-06-27T12:30:55.376Z,988.00
2018-06-27T12:31:55.372Z,984.00
2018-06-27T12:32:55.368Z,988.00